createdAt,value
2022-10-08T00:01:17.668Z,10.90
2022-10-08T00:03:51.472Z,10.87
2022-10-08T00:06:38.799Z,10.94
2022-10-08T00:09:07.268Z,10.70
2022-10-08T00:11:38.923Z,10.83
2022-10-08T00:14:07.525Z,10.81
2022-10-08T00:16:37.806Z,10.82
2022-10-08T00:19:13.281Z,10.83
2022-10-08T00:21:43.837Z,10.71
2022-10-08T00:24:15.326Z,10.71
2022-10-08T00:26:44.076Z,10.72
2022-10-08T00:29:14.049Z,10.70
2022-10-08T00:31:44.336Z,10.39
2022-10-08T00:34:20.606Z,10.49
2022-10-08T00:36:51.643Z,10.40
2022-10-08T00:39:20.922Z,10.37
2022-10-08T00:41:51.517Z,10.41
2022-10-08T00:44:47.210Z,10.28
2022-10-08T00:47:24.615Z,10.28
2022-10-08T00:49:55.451Z,10.39
2022-10-08T00:52:25.093Z,10.30
2022-10-08T00:54:52.245Z,10.23
2022-10-08T00:57:21.762Z,10.12
2022-10-08T00:59:48.714Z,10.05
2022-10-08T01:02:16.035Z,9.72
2022-10-08T01:04:44.129Z,9.94
2022-10-08T01:07:20.121Z,9.86
2022-10-08T01:09:50.121Z,9.84
2022-10-08T01:12:46.130Z,9.89
2022-10-08T01:15:13.337Z,9.88
2022-10-08T01:17:56.469Z,9.82
2022-10-08T01:20:44.109Z,9.85
2022-10-08T01:23:42.345Z,9.74
2022-10-08T01:26:23.612Z,9.87
2022-10-08T01:29:12.902Z,9.75
2022-10-08T01:31:47.305Z,9.74
2022-10-08T01:34:28.986Z,9.74
2022-10-08T01:36:58.560Z,9.75
2022-10-08T01:39:28.982Z,9.62
2022-10-08T01:41:56.697Z,9.60
2022-10-08T01:44:28.210Z,9.47
2022-10-08T01:46:59.269Z,9.52
2022-10-08T01:49:31.528Z,9.60
2022-10-08T01:52:04.938Z,9.63
2022-10-08T01:54:34.336Z,9.60
2022-10-08T01:57:05.754Z,9.51
2022-10-08T01:59:42.770Z,9.28
2022-10-08T02:02:19.502Z,9.39
2022-10-08T02:04:47.482Z,9.22
2022-10-08T02:07:24.054Z,9.24
2022-10-08T02:09:53.841Z,9.24
2022-10-08T02:12:22.998Z,9.18
2022-10-08T02:14:53.995Z,8.96
2022-10-08T02:18:07.722Z,8.92
2022-10-08T02:20:47.522Z,8.93
2022-10-08T02:23:32.434Z,8.95
2022-10-08T02:26:00.553Z,8.90
2022-10-08T02:28:43.317Z,8.77
2022-10-08T02:31:19.556Z,8.90
2022-10-08T02:33:55.573Z,8.98
2022-10-08T02:36:28.374Z,9.03
2022-10-08T02:38:59.270Z,8.79
2022-10-08T02:41:33.272Z,8.94
2022-10-08T02:44:06.445Z,9.02
2022-10-08T02:46:37.878Z,8.93
2022-10-08T02:49:10.087Z,9.00
2022-10-08T02:51:41.703Z,8.80
2022-10-08T02:54:09.133Z,8.90
2022-10-08T02:56:48.810Z,8.93
2022-10-08T02:59:19.183Z,8.98
2022-10-08T03:01:50.628Z,8.96
2022-10-08T03:04:26.199Z,8.88
2022-10-08T03:06:55.060Z,8.93
2022-10-08T03:09:25.387Z,8.75
2022-10-08T03:11:54.855Z,8.84
2022-10-08T03:14:24.139Z,8.67
2022-10-08T03:16:51.248Z,8.73
2022-10-08T03:19:18.713Z,8.86
2022-10-08T03:21:48.222Z,8.74
2022-10-08T03:24:15.917Z,8.74
2022-10-08T03:26:43.249Z,8.82
2022-10-08T03:29:11.076Z,8.80
2022-10-08T03:31:38.149Z,8.87
2022-10-08T03:34:05.733Z,8.86
2022-10-08T03:36:32.783Z,8.81
2022-10-08T03:38:59.861Z,8.82
2022-10-08T03:41:27.059Z,8.89
2022-10-08T03:43:54.204Z,8.80
2022-10-08T03:46:21.377Z,8.71
2022-10-08T03:48:49.945Z,8.70
2022-10-08T03:51:18.474Z,8.57
2022-10-08T03:53:46.078Z,8.65
2022-10-08T03:56:19.144Z,8.66
2022-10-08T03:58:47.330Z,8.63
2022-10-08T04:01:16.927Z,8.71
2022-10-08T04:03:45.395Z,8.62
2022-10-08T04:06:12.586Z,8.52
2022-10-08T04:08:40.128Z,8.61
2022-10-08T04:11:10.326Z,8.67
2022-10-08T04:13:38.393Z,8.57
2022-10-08T04:16:08.493Z,8.58
2022-10-08T04:18:35.762Z,8.50
2022-10-08T04:21:05.945Z,8.61
2022-10-08T04:23:34.970Z,8.55
2022-10-08T04:26:02.213Z,8.53
2022-10-08T04:28:29.688Z,8.65
2022-10-08T04:31:02.689Z,8.60
2022-10-08T04:33:31.577Z,8.61
2022-10-08T04:36:00.351Z,8.46
2022-10-08T04:38:28.782Z,8.47
2022-10-08T04:41:16.322Z,8.44
2022-10-08T04:43:44.583Z,8.17
2022-10-08T04:46:14.211Z,8.33
2022-10-08T04:48:46.641Z,8.29
2022-10-08T04:51:14.430Z,8.32
2022-10-08T04:53:41.549Z,8.35
2022-10-08T04:56:18.367Z,8.33
2022-10-08T04:58:45.605Z,8.08
2022-10-08T05:01:15.228Z,8.18
2022-10-08T05:03:45.714Z,8.25
2022-10-08T05:06:14.877Z,8.27
2022-10-08T05:08:42.451Z,8.05
2022-10-08T05:11:09.806Z,8.22
2022-10-08T05:13:36.931Z,8.24
2022-10-08T05:16:06.257Z,8.17
2022-10-08T05:18:34.349Z,8.08
2022-10-08T05:21:22.422Z,8.08
2022-10-08T05:23:55.346Z,8.08
2022-10-08T05:26:41.581Z,8.20
2022-10-08T05:29:12.582Z,8.20
2022-10-08T05:31:39.719Z,8.28
2022-10-08T05:34:06.824Z,8.23
2022-10-08T05:36:34.543Z,8.16
2022-10-08T05:39:05.138Z,8.27
2022-10-08T05:41:34.924Z,8.07
2022-10-08T05:44:02.097Z,8.04
2022-10-08T05:46:31.376Z,8.07
2022-10-08T05:49:01.613Z,7.95
2022-10-08T05:51:29.751Z,8.06
2022-10-08T05:53:59.379Z,8.05
2022-10-08T05:56:27.497Z,8.06
2022-10-08T05:58:54.553Z,8.06
2022-10-08T06:01:28.017Z,8.20
2022-10-08T06:04:04.364Z,8.15
2022-10-08T06:06:39.364Z,8.18
2022-10-08T06:09:08.162Z,8.17
2022-10-08T06:11:36.869Z,8.23
2022-10-08T06:14:06.971Z,8.36
2022-10-08T06:16:35.160Z,8.47
2022-10-08T06:19:03.774Z,8.54
2022-10-08T06:21:31.948Z,8.56
2022-10-08T06:24:01.202Z,8.77
2022-10-08T06:26:35.402Z,8.83
2022-10-08T06:29:10.454Z,8.94
2022-10-08T06:31:37.622Z,8.93
2022-10-08T06:34:05.344Z,9.16
2022-10-08T06:36:33.681Z,9.25
2022-10-08T06:39:03.973Z,9.24
2022-10-08T06:41:33.177Z,9.33
2022-10-08T06:44:01.252Z,9.43
2022-10-08T06:46:31.160Z,9.57
2022-10-08T06:48:59.093Z,9.61
2022-10-08T06:51:26.653Z,9.63
2022-10-08T06:53:57.002Z,9.77
2022-10-08T06:56:25.021Z,9.75
2022-10-08T06:58:52.721Z,9.79
2022-10-08T07:01:33.732Z,9.68
2022-10-08T07:04:02.223Z,9.66
2022-10-08T07:06:29.849Z,9.61
2022-10-08T07:08:59.152Z,9.51
2022-10-08T07:11:27.638Z,9.44
2022-10-08T07:13:55.928Z,9.45
2022-10-08T07:16:25.542Z,9.43
2022-10-08T07:18:55.066Z,9.52
2022-10-08T07:21:22.736Z,9.63
2022-10-08T07:23:50.679Z,9.96
2022-10-08T07:26:19.836Z,9.84
2022-10-08T07:29:02.460Z,9.82
2022-10-08T07:31:35.396Z,9.86
2022-10-08T07:34:05.839Z,9.80
2022-10-08T07:36:33.397Z,9.85
2022-10-08T07:39:18.987Z,9.86
2022-10-08T07:41:46.691Z,9.85
2022-10-08T07:44:14.915Z,9.92
2022-10-08T07:46:48.435Z,9.96
2022-10-08T07:49:19.202Z,10.11
2022-10-08T07:51:47.101Z,10.11
2022-10-08T07:54:16.805Z,10.22
2022-10-08T07:56:44.885Z,10.29
2022-10-08T07:59:15.063Z,10.21
2022-10-08T08:01:43.011Z,10.34
2022-10-08T08:04:11.193Z,10.48
2022-10-08T08:06:44.493Z,10.51
2022-10-08T08:09:12.099Z,10.57
2022-10-08T08:11:40.156Z,10.46
2022-10-08T08:14:08.014Z,10.57
2022-10-08T08:16:35.183Z,10.68
2022-10-08T08:19:03.067Z,10.89
2022-10-08T08:21:35.684Z,11.06
2022-10-08T08:24:06.075Z,11.22
2022-10-08T08:26:35.973Z,11.38
2022-10-08T08:29:06.831Z,11.38
2022-10-08T08:31:36.671Z,11.41
2022-10-08T08:34:07.063Z,11.52
2022-10-08T08:36:37.173Z,11.68
2022-10-08T08:39:05.300Z,11.95
2022-10-08T08:42:02.769Z,12.35
2022-10-08T08:45:18.869Z,12.16
2022-10-08T08:48:26.263Z,11.94
2022-10-08T08:50:58.595Z,11.75
2022-10-08T08:53:26.306Z,11.79
2022-10-08T08:55:57.935Z,11.66
2022-10-08T08:58:43.158Z,11.59
2022-10-08T09:01:10.246Z,11.56
2022-10-08T09:03:43.381Z,11.59
2022-10-08T09:06:14.433Z,11.78
2022-10-08T09:08:56.237Z,11.65
2022-10-08T09:11:26.995Z,11.75
2022-10-08T09:14:00.458Z,11.74
2022-10-08T09:16:28.141Z,11.50
2022-10-08T09:18:55.606Z,11.52
2022-10-08T09:21:24.857Z,11.64
2022-10-08T09:23:51.898Z,11.87
2022-10-08T09:26:23.359Z,11.75
2022-10-08T09:28:54.128Z,12.04
2022-10-08T09:31:24.167Z,11.89
2022-10-08T09:34:17.438Z,11.90
2022-10-08T09:36:46.474Z,12.07
2022-10-08T09:39:29.433Z,12.14
2022-10-08T09:42:09.271Z,12.26
2022-10-08T09:44:45.714Z,12.15
2022-10-08T09:47:24.071Z,12.23
2022-10-08T09:50:15.923Z,12.36
2022-10-08T09:52:43.108Z,12.27
2022-10-08T09:55:19.984Z,12.44
2022-10-08T09:57:51.153Z,12.16
2022-10-08T10:00:31.994Z,12.30
2022-10-08T10:03:00.370Z,12.50
2022-10-08T10:05:30.907Z,13.04
2022-10-08T10:07:58.045Z,12.73
2022-10-08T10:10:35.580Z,12.07
2022-10-08T10:13:11.730Z,12.40
2022-10-08T10:15:44.462Z,12.22
2022-10-08T10:18:18.390Z,12.30
2022-10-08T10:20:53.367Z,12.55
2022-10-08T10:23:34.020Z,12.92
2022-10-08T10:26:08.912Z,12.87
2022-10-08T10:28:44.286Z,12.91
2022-10-08T10:31:19.402Z,12.78
2022-10-08T10:33:52.439Z,12.60
2022-10-08T10:36:22.035Z,12.52
2022-10-08T10:38:56.448Z,12.71
2022-10-08T10:41:52.253Z,12.66
2022-10-08T10:44:26.621Z,12.52
2022-10-08T10:46:57.860Z,12.72
2022-10-08T10:49:33.820Z,12.88
2022-10-08T10:52:41.994Z,12.64
2022-10-08T10:55:35.517Z,12.32
2022-10-08T10:58:20.456Z,12.43
2022-10-08T11:01:09.320Z,12.39
2022-10-08T11:04:10.127Z,12.79
2022-10-08T11:06:52.265Z,13.15
2022-10-08T11:09:41.223Z,13.17
2022-10-08T11:12:48.668Z,12.95
2022-10-08T11:15:37.189Z,12.64
2022-10-08T11:18:48.863Z,12.46
2022-10-08T11:21:36.131Z,12.49
2022-10-08T11:24:34.395Z,13.14
2022-10-08T11:27:15.584Z,13.47
2022-10-08T11:30:14.062Z,13.71
2022-10-08T11:32:43.710Z,13.37
2022-10-08T11:35:22.898Z,13.37
2022-10-08T11:38:01.243Z,13.67
2022-10-08T11:40:43.284Z,13.52
2022-10-08T11:43:16.758Z,13.62
2022-10-08T11:45:46.046Z,13.54
2022-10-08T11:48:33.722Z,13.52
2022-10-08T11:51:18.812Z,13.57
2022-10-08T11:54:07.826Z,13.36
2022-10-08T11:56:38.533Z,13.24
2022-10-08T11:59:18.641Z,13.09
2022-10-08T12:01:51.214Z,13.35
2022-10-08T12:04:28.553Z,13.13
2022-10-08T12:07:17.197Z,13.08
2022-10-08T12:10:03.296Z,12.74
2022-10-08T12:12:48.991Z,12.76
2022-10-08T12:15:25.047Z,13.09
2022-10-08T12:17:54.691Z,13.30
2022-10-08T12:20:25.347Z,13.52
2022-10-08T12:23:12.068Z,13.39
2022-10-08T12:26:04.773Z,13.47
2022-10-08T12:28:37.900Z,13.66
2022-10-08T12:31:20.371Z,13.80
2022-10-08T12:34:19.584Z,14.14
2022-10-08T12:37:01.994Z,14.17
2022-10-08T12:39:41.035Z,14.04
2022-10-08T12:42:19.988Z,13.92
2022-10-08T12:44:56.771Z,14.25
2022-10-08T12:47:23.814Z,14.25
2022-10-08T12:49:59.788Z,13.76
2022-10-08T12:52:26.950Z,14.42
2022-10-08T12:54:56.566Z,14.02
2022-10-08T12:57:30.083Z,14.35
2022-10-08T13:00:05.980Z,14.71
2022-10-08T13:02:41.052Z,14.51
2022-10-08T13:05:29.712Z,14.82
2022-10-08T13:07:57.572Z,14.70
2022-10-08T13:10:29.448Z,14.77
2022-10-08T13:13:26.255Z,14.51
2022-10-08T13:16:00.771Z,14.79
2022-10-08T13:18:31.873Z,14.66
2022-10-08T13:21:03.048Z,15.04
2022-10-08T13:23:44.775Z,14.88
2022-10-08T13:26:38.027Z,15.08
2022-10-08T13:29:23.806Z,15.10
2022-10-08T13:31:52.873Z,15.09
2022-10-08T13:34:20.208Z,15.21
2022-10-08T13:36:53.701Z,15.45
2022-10-08T13:39:27.535Z,16.89
2022-10-08T13:42:00.671Z,25.28
2022-10-08T13:44:28.534Z,27.24
2022-10-08T13:46:58.953Z,28.13
2022-10-08T13:49:29.487Z,28.54
2022-10-08T13:51:58.625Z,28.43
2022-10-08T13:54:28.519Z,27.71
2022-10-08T13:56:55.857Z,29.26
2022-10-08T13:59:26.988Z,28.81
2022-10-08T14:01:56.920Z,28.19
2022-10-08T14:04:24.124Z,20.28
2022-10-08T14:06:54.699Z,20.84
2022-10-08T14:09:24.871Z,26.37
2022-10-08T14:11:56.825Z,24.85
2022-10-08T14:14:27.589Z,25.07
2022-10-08T14:16:54.691Z,20.48
2022-10-08T14:19:21.972Z,17.96
2022-10-08T14:21:52.027Z,19.08
2022-10-08T14:24:19.112Z,27.75
2022-10-08T14:26:46.214Z,29.23
2022-10-08T14:29:13.304Z,29.20
2022-10-08T14:31:40.468Z,25.05
2022-10-08T14:34:07.588Z,26.23
2022-10-08T14:36:37.556Z,23.70
2022-10-08T14:39:05.356Z,19.91
2022-10-08T14:41:33.247Z,18.61
2022-10-08T14:44:00.289Z,18.42
2022-10-08T14:46:27.371Z,24.95
2022-10-08T14:48:54.450Z,27.71
2022-10-08T14:51:21.499Z,29.71
2022-10-08T14:53:50.157Z,21.47
2022-10-08T14:56:17.291Z,18.70
2022-10-08T14:58:44.347Z,17.85
2022-10-08T15:01:11.458Z,18.02
2022-10-08T15:03:38.592Z,17.18
2022-10-08T15:06:05.876Z,20.70
2022-10-08T15:08:33.613Z,17.90
2022-10-08T15:11:04.195Z,18.46
2022-10-08T15:13:31.312Z,16.46
2022-10-08T15:15:58.840Z,15.89
2022-10-08T15:18:30.119Z,15.88
2022-10-08T15:20:59.821Z,15.81
2022-10-08T15:23:27.424Z,15.83
2022-10-08T15:26:03.426Z,15.75
2022-10-08T15:28:30.642Z,15.80
2022-10-08T15:31:15.989Z,16.57
2022-10-08T15:33:45.234Z,19.66
2022-10-08T15:36:37.004Z,21.29
2022-10-08T15:39:13.387Z,24.18
2022-10-08T15:41:47.026Z,24.50
2022-10-08T15:44:27.641Z,25.56
2022-10-08T15:47:01.943Z,26.06
2022-10-08T15:49:41.896Z,26.11
2022-10-08T15:52:19.274Z,26.41
2022-10-08T15:54:46.954Z,25.69
2022-10-08T15:57:15.775Z,24.55
2022-10-08T15:59:42.898Z,25.55
2022-10-08T16:02:16.915Z,25.11
2022-10-08T16:04:46.812Z,24.92
2022-10-08T16:07:14.129Z,24.06
2022-10-08T16:09:41.171Z,20.72
2022-10-08T16:12:08.258Z,18.36
2022-10-08T16:14:35.426Z,17.31
2022-10-08T16:17:02.917Z,16.64
2022-10-08T16:19:30.137Z,16.60
2022-10-08T16:21:58.377Z,16.06
2022-10-08T16:24:25.723Z,15.58
2022-10-08T16:26:52.810Z,15.73
2022-10-08T16:29:19.932Z,15.71
2022-10-08T16:31:47.731Z,15.89
2022-10-08T16:34:18.191Z,15.69
2022-10-08T16:36:48.649Z,15.66
2022-10-08T16:39:19.097Z,15.60
2022-10-08T16:41:47.160Z,15.62
2022-10-08T16:44:16.550Z,15.60
2022-10-08T16:46:44.679Z,15.27
2022-10-08T16:49:25.400Z,15.14
2022-10-08T16:51:59.201Z,14.81
2022-10-08T16:54:27.426Z,14.71
2022-10-08T16:56:54.620Z,14.49
2022-10-08T16:59:24.407Z,14.34
2022-10-08T17:01:54.559Z,14.38
2022-10-08T17:04:23.534Z,14.25
2022-10-08T17:06:50.702Z,14.46
2022-10-08T17:09:18.078Z,14.46
2022-10-08T17:11:45.201Z,14.40
2022-10-08T17:14:12.615Z,14.13
2022-10-08T17:16:40.183Z,13.97
2022-10-08T17:19:07.310Z,13.92
2022-10-08T17:21:34.894Z,13.72
2022-10-08T17:24:03.144Z,13.22
2022-10-08T17:26:30.951Z,13.36
2022-10-08T17:29:03.574Z,12.81
2022-10-08T17:31:31.702Z,12.51
2022-10-08T17:34:00.293Z,12.91
2022-10-08T17:36:30.091Z,13.03
2022-10-08T17:38:59.383Z,12.92
2022-10-08T17:41:29.097Z,12.87
2022-10-08T17:43:58.999Z,12.76
2022-10-08T17:46:32.352Z,12.78
2022-10-08T17:48:59.893Z,12.88
2022-10-08T17:51:29.682Z,12.96
2022-10-08T17:54:00.478Z,12.76
2022-10-08T17:56:28.811Z,12.54
2022-10-08T17:58:56.385Z,12.78
2022-10-08T18:01:32.292Z,12.70
2022-10-08T18:04:01.588Z,12.47
2022-10-08T18:06:29.894Z,12.22
2022-10-08T18:08:59.245Z,11.89
2022-10-08T18:11:28.195Z,12.12
2022-10-08T18:13:55.363Z,11.79
2022-10-08T18:16:22.998Z,11.53
2022-10-08T18:18:50.130Z,11.92
2022-10-08T18:21:18.876Z,11.56
2022-10-08T18:23:46.714Z,11.51
2022-10-08T18:26:24.363Z,11.64
2022-10-08T18:28:54.494Z,11.85
2022-10-08T18:31:25.082Z,11.72
2022-10-08T18:33:58.157Z,11.73
2022-10-08T18:36:28.075Z,11.51
2022-10-08T18:39:00.625Z,10.90
2022-10-08T18:41:36.736Z,11.25
2022-10-08T18:44:05.833Z,11.27
2022-10-08T18:46:36.976Z,11.25
2022-10-08T18:49:05.265Z,11.43
2022-10-08T18:51:32.931Z,11.57
2022-10-08T18:54:02.244Z,11.10
2022-10-08T18:56:31.585Z,11.07
2022-10-08T18:59:01.758Z,10.75
2022-10-08T19:01:34.518Z,10.64
2022-10-08T19:04:04.227Z,9.99
2022-10-08T19:06:36.646Z,10.58
2022-10-08T19:09:07.446Z,10.75
2022-10-08T19:11:44.354Z,11.03
2022-10-08T19:14:14.189Z,10.77
2022-10-08T19:16:41.971Z,10.72
2022-10-08T19:19:13.894Z,10.08
2022-10-08T19:21:41.502Z,10.18
2022-10-08T19:24:13.473Z,10.22
2022-10-08T19:26:40.638Z,10.35
2022-10-08T19:29:13.128Z,10.40
2022-10-08T19:31:40.188Z,10.29
2022-10-08T19:34:08.005Z,10.36
2022-10-08T19:36:37.359Z,10.28
2022-10-08T19:39:12.884Z,10.15
2022-10-08T19:41:40.800Z,10.01
2022-10-08T19:44:08.619Z,10.03
2022-10-08T19:46:35.824Z,9.81
2022-10-08T19:49:05.520Z,10.12
2022-10-08T19:51:33.225Z,10.04
2022-10-08T19:54:01.069Z,9.99
2022-10-08T19:56:29.157Z,9.99
2022-10-08T19:58:57.132Z,9.93
2022-10-08T20:01:33.643Z,9.93
2022-10-08T20:04:02.894Z,9.76
2022-10-08T20:06:31.972Z,9.78
2022-10-08T20:09:01.710Z,9.56
2022-10-08T20:11:31.075Z,9.68
2022-10-08T20:13:59.988Z,9.77
2022-10-08T20:16:32.852Z,9.45
2022-10-08T20:19:12.507Z,9.10
2022-10-08T20:21:39.717Z,9.20
2022-10-08T20:24:07.035Z,9.40
2022-10-08T20:26:36.304Z,9.39
2022-10-08T20:29:09.824Z,9.44
2022-10-08T20:31:46.788Z,9.39
2022-10-08T20:34:31.109Z,9.46
2022-10-08T20:37:01.142Z,8.96
2022-10-08T20:39:28.778Z,9.24
2022-10-08T20:41:56.380Z,9.28
2022-10-08T20:44:23.469Z,9.15
2022-10-08T20:46:51.713Z,8.93
2022-10-08T20:49:19.552Z,9.24
2022-10-08T20:51:46.717Z,9.17
2022-10-08T20:54:17.153Z,9.13
2022-10-08T20:56:44.782Z,8.73
2022-10-08T20:59:16.401Z,8.88
2022-10-08T21:01:44.146Z,9.04
2022-10-08T21:04:11.246Z,9.03
2022-10-08T21:06:41.663Z,9.11
2022-10-08T21:09:09.291Z,9.13
2022-10-08T21:11:37.112Z,9.17
2022-10-08T21:14:05.435Z,8.93
2022-10-08T21:16:34.941Z,8.78
2022-10-08T21:19:04.545Z,8.79
2022-10-08T21:21:32.545Z,8.85
2022-10-08T21:24:00.617Z,8.78
2022-10-08T21:26:29.279Z,8.78
2022-10-08T21:28:58.774Z,8.81
2022-10-08T21:31:26.484Z,8.90
2022-10-08T21:33:54.466Z,8.44
2022-10-08T21:36:27.112Z,8.41
2022-10-08T21:38:55.108Z,8.46
2022-10-08T21:41:24.110Z,8.62
2022-10-08T21:43:58.423Z,8.60
2022-10-08T21:46:28.598Z,8.41
2022-10-08T21:49:01.390Z,8.63
2022-10-08T21:51:29.891Z,8.53
2022-10-08T21:54:00.156Z,8.54
2022-10-08T21:56:30.073Z,8.46
2022-10-08T21:58:59.336Z,8.38
2022-10-08T22:01:29.404Z,7.95
2022-10-08T22:03:59.591Z,7.75
2022-10-08T22:06:28.501Z,8.14
2022-10-08T22:08:56.996Z,8.18
2022-10-08T22:11:24.495Z,8.10
2022-10-08T22:13:51.847Z,8.16
2022-10-08T22:16:20.849Z,7.77
2022-10-08T22:18:48.293Z,7.75
2022-10-08T22:21:18.801Z,7.81
2022-10-08T22:23:46.657Z,7.42
2022-10-08T22:26:22.732Z,7.71
2022-10-08T22:28:50.341Z,7.61
2022-10-08T22:31:19.101Z,7.61
2022-10-08T22:33:46.686Z,7.82
2022-10-08T22:36:21.309Z,7.77
2022-10-08T22:38:49.386Z,7.50
2022-10-08T22:41:19.751Z,7.60
2022-10-08T22:43:47.084Z,7.67
2022-10-08T22:46:22.634Z,7.21
2022-10-08T22:48:49.873Z,7.41
2022-10-08T22:51:21.773Z,7.60
2022-10-08T22:53:49.055Z,7.60
2022-10-08T22:56:22.165Z,6.97
2022-10-08T22:58:50.162Z,7.01
2022-10-08T23:01:19.870Z,7.21
2022-10-08T23:03:47.823Z,7.14
2022-10-08T23:06:16.714Z,6.85
2022-10-08T23:08:45.234Z,7.29
2022-10-08T23:11:12.799Z,7.14
2022-10-08T23:13:40.065Z,7.02
2022-10-08T23:16:07.147Z,7.12
2022-10-08T23:18:36.432Z,7.41
2022-10-08T23:21:06.611Z,7.45
2022-10-08T23:23:34.985Z,7.52
2022-10-08T23:26:05.200Z,7.32
2022-10-08T23:28:34.330Z,7.43
2022-10-08T23:31:09.520Z,7.37
2022-10-08T23:33:38.335Z,7.49
2022-10-08T23:36:07.722Z,7.53
2022-10-08T23:38:35.703Z,7.59
2022-10-08T23:41:04.888Z,7.65
2022-10-08T23:43:37.048Z,7.72
2022-10-08T23:46:05.405Z,7.73
2022-10-08T23:48:32.840Z,7.69
2022-10-08T23:51:00.790Z,7.73
2022-10-08T23:53:28.640Z,7.43
2022-10-08T23:55:55.961Z,7.51
2022-10-08T23:58:23.103Z,7.60
